Repentigny, Canada
Current Conditions -  °F | °C
As of 4:00 PM on Tuesday 25 Nov 2014 (Local Time) from CYHU Reporting Station
Overcast Overcast  
Wind Chill: 36°   Ceiling: 4900
Heat Index: 45°   Visibility: 9mi
Dew Point: 30°   Wind: 24mph
Humidity: 57%   Direction: 230°SW
Pressure: 29.84"   Gusts: NA
Location:  45.73°N, 73.45°W
Report Text: CYHU 252100Z AUTO 23021KT 9SM FEW040 BKN049 BKN055 OVC068 07/M01 A2984 RMK SLP106
Loading
Personal Weather Stations






























Interactive Weather Map New forecast layout! Learn more

10-Day Weather Forecast

Advertisements
Track Severe Weather on mobile